タシケント空港の過去48時間の天気

タシケント空港 (Tashkent)

現在時刻: 9/16 20:10 +05 (9/16 15:10 UTC) 以下の時間は現地時間です。

過去48時間のMETAR気象情報
時間 風向 風速(m/s) 視程 気温(℃) 湿度(%) 気圧(hPa) 天気現象
16 19:30 北西 1 10km以上 23 25 1020
16 19:00 北西 1 10km以上 23 23 1020
16 18:30 北西 2 10km以上 24 22 1020
16 18:00 北西 2 10km以上 25 21 1020
16 17:30 北西 3 10km以上 25 19 1020
16 17:00 北西 3 10km以上 25 22 1020
16 16:30 西 3 10km以上 25 22 1019
16 16:00 西 3 10km以上 25 21 1019
16 15:30 西北西 3 10km以上 25 22 1019
16 15:00 西 3 10km以上 26 21 1019
16 14:30 西南西 2 10km以上 26 21 1019
16 14:00 西 5 10km以上 26 21 1020
16 13:30 西北西 5 10km以上 27 18 1020
16 13:00 西南西 4 10km以上 27 18 1020
16 12:30 南東 2 10km以上 27 20 1020
16 12:00 南東 1 10km以上 26 24 1020
16 11:30 南西 2 10km以上 25 26 1020
16 11:00 南南西 2 10km以上 24 29 1020
16 10:30 3 10km以上 24 31 1020
16 10:00 2 10km以上 23 31 1021
16 09:30 2 10km以上 22 33 1021
16 09:00 東南東 2 10km以上 21 38 1021
16 08:30 東北東 2 10km以上 20 40 1021
16 08:00 東北東 2 10km以上 18 49 1021
16 07:30 東北東 2 10km以上 17 52 1021
16 07:00 2 10km以上 14 63 1021
16 06:30 東北東 3 10km以上 13 62 1021
16 06:00 東北東 3 10km以上 12 67 1020
16 05:30 4 10km以上 13 62 1020
16 05:00 3 10km以上 14 63 1020
16 04:30 南東 2 10km以上 15 59 1020
16 04:00 東北東 4 10km以上 15 59 1020
16 03:30 東北東 4 10km以上 15 59 1020
16 03:00 東北東 4 10km以上 16 55 1020
16 02:30 東北東 3 10km以上 16 55 1019
16 02:00 東北東 4 10km以上 16 55 1019
16 01:30 東北東 3 10km以上 15 59 1019
16 01:00 4 10km以上 15 59 1020
16 00:30 東北東 4 10km以上 16 59 1020
16 00:00 東北東 4 10km以上 17 55 1020
15 23:30 東北東 4 10km以上 17 55 1020
15 23:00 東北東 3 10km以上 17 55 1020
15 22:30 東北東 4 10km以上 19 52 1020
15 22:00 北東 3 10km以上 19 52 1020
15 21:30 東北東 3 10km以上 19 49 1020
15 21:00 東北東 2 10km以上 19 46 1020
15 20:30 北北東 4 10km以上 21 40 1020
15 20:00 北北東 5 10km以上 22 38 1020
15 19:30 5 10km以上 22 38 1020
15 19:00 北北東 5 10km以上 23 38 1019
15 18:30 4 10km以上 24 36 1019
15 18:00 北西 4 10km以上 25 30 1019
15 17:30 南南西 4 10km以上 25 24 1018
15 17:00 南西 3 10km以上 26 24 1018
15 16:30 南南西 5 10km以上 25 26 1018
15 16:00 南南西 4 10km以上 25 39 1018
15 15:30 南南西 4 10km以上 25 36 1018
15 15:00 3 10km以上 26 34 1018
15 14:30 3 10km以上 25 36 1018
15 14:00 南西 3 10km以上 24 38 1018
15 13:30 3 10km以上 23 44 1018
15 13:00 3 10km以上 23 44 1018
15 12:30 南南東 4 7000m 22 46 1018
15 12:00 東南東 3 7000m 22 46 1018
15 11:30 東南東 3 7000m 21 49 1018
15 11:00 不定 1 7000m 21 49 1018
15 10:30 2 7000m 20 53 1018
15 10:00 不定 1 7000m 20 56 1018
15 09:30 不定 1 7000m 19 56 1018 弱いしゅう雨
15 09:00 南南東 2 10km以上 19 56 1017 弱いしゅう雨
15 08:30 南南東 2 10km以上 19 56 1017
15 08:00 南東 3 10km以上 19 52 1016
15 07:30 不定 1 10km以上 20 49 1016
15 07:00 2 10km以上 20 46 1016
15 06:30 不定 1 10km以上 20 46 1016
15 06:00 不定 1 10km以上 20 46 1016
15 05:30 東北東 3 10km以上 20 46 1016
15 05:00 東北東 2 10km以上 20 46 1015
15 04:30 東北東 3 10km以上 17 48 1015
15 04:00 3 10km以上 18 45 1015
15 03:30 北北東 2 10km以上 20 40 1015
15 03:00 不定 1 10km以上 21 38 1015
15 02:30 静穏 0 10km以上 21 38 1015
15 02:00 不定 1 10km以上 20 40 1015
15 01:30 2 10km以上 22 33 1015
15 01:00 不定 1 10km以上 21 35 1015
15 00:30 北西 1 10km以上 22 33 1015
UTTT 161430Z 32002KT CAVOK 23/02 Q1020 R08R/CLRD70 NOSIG
UTTT 161400Z 31002KT CAVOK 23/01 Q1020 R08R/CLRD70 NOSIG
UTTT 161330Z 31004KT CAVOK 24/01 Q1020 R08R/CLRD70 NOSIG
UTTT 161300Z 32004KT 290V350 CAVOK 25/01 Q1020 R08R/CLRD70 NOSIG
UTTT 161230Z 31006KT CAVOK 25/00 Q1020 R08R/CLRD70 NOSIG
UTTT 161200Z 31006KT CAVOK 25/02 Q1020 R26R/CLRD70 NOSIG
UTTT 161130Z 27006KT CAVOK 25/02 Q1019 R26R/CLRD70 TEMPO FEW060CB
UTTT 161100Z 28006KT 240V320 CAVOK 25/01 Q1019 R26R/CLRD70 TEMPO FEW060CB
UTTT 161030Z 30006KT 250V330 CAVOK 25/02 Q1019 R26R/CLRD70 TEMPO FEW060CB
UTTT 161000Z 27006KT 240V300 CAVOK 26/02 Q1019 R26R/CLRD70 TEMPO FEW060CB
UTTT 160930Z 25004KT 130V300 CAVOK 26/02 Q1019 R26R/CLRD70 NOSIG
UTTT 160900Z 27010KT 230V310 CAVOK 26/02 Q1020 R26R/CLRD70 NOSIG
UTTT 160830Z 30010G20KT 260V330 CAVOK 27/01 Q1020 R26R/CLRD70 NOSIG
UTTT 160800Z 25008KT 160V300 CAVOK 27/01 Q1020 R08R/CLRD70 NOSIG
UTTT 160730Z 13004KT CAVOK 27/02 Q1020 R08R/CLRD70 NOSIG
UTTT 160700Z 13002KT CAVOK 26/04 Q1020 R08R/CLRD70 NOSIG
UTTT 160630Z 23004KT CAVOK 25/04 Q1020 R08R/CLRD70 NOSIG
UTTT 160600Z 21004KT 160V280 CAVOK 24/05 Q1020 R08R/CLRD70 NOSIG
UTTT 160530Z 18006KT 130V220 CAVOK 24/06 Q1020 R08R/CLRD70 NOSIG
UTTT 160500Z 17004KT 120V250 CAVOK 23/05 Q1021 R08R/CLRD70 NOSIG
UTTT 160430Z 19004KT 110V230 CAVOK 22/05 Q1021 R08R/CLRD70 NOSIG
UTTT 160400Z 11004KT 070V170 CAVOK 21/06 Q1021 R08R/CLRD70 NOSIG
UTTT 160330Z 07004KT 030V120 CAVOK 20/06 Q1021 R08R/CLRD70 NOSIG
UTTT 160300Z 07004KT CAVOK 18/07 Q1021 R08R/CLRD70 NOSIG
UTTT 160230Z 07004KT 050V110 CAVOK 17/07 Q1021 R08R/CLRD70 NOSIG
UTTT 160200Z 08004KT CAVOK 14/07 Q1021 R08R/CLRD70 NOSIG
UTTT 160130Z 07006KT CAVOK 13/06 Q1021 R08R/CLRD70 NOSIG
UTTT 160100Z 07006KT CAVOK 12/06 Q1020 R08R/CLRD70 NOSIG
UTTT 160030Z 08008KT CAVOK 13/06 Q1020 R08R/CLRD70 NOSIG
UTTT 160000Z 09006KT CAVOK 14/07 Q1020 R08R/CLRD70 NOSIG
UTTT 152330Z 14004KT CAVOK 15/07 Q1020 R08R/CLRD70 NOSIG
UTTT 152300Z 06008KT CAVOK 15/07 Q1020 R08R/CLRD70 NOSIG
UTTT 152230Z 06008KT CAVOK 15/07 Q1020 R08R/CLRD70 NOSIG
UTTT 152200Z 06008KT 350V070 CAVOK 16/07 Q1020 R08R/CLRD70 NOSIG
UTTT 152130Z 06006KT 360V080 CAVOK 16/07 Q1019 R08R/CLRD70 NOSIG
UTTT 152100Z 06008KT CAVOK 16/07 Q1019 R08R/CLRD70 NOSIG
UTTT 152030Z 07006KT CAVOK 15/07 Q1019 R08R/CLRD70 NOSIG
UTTT 152000Z 08008KT CAVOK 15/07 Q1020 R08R/CLRD70 NOSIG
UTTT 151930Z 07008KT CAVOK 16/08 Q1020 R08R/CLRD70 NOSIG
UTTT 151900Z 06008KT CAVOK 17/08 Q1020 R08R/CLRD70 NOSIG
UTTT 151830Z 06008KT CAVOK 17/08 Q1020 R08R/CLRD70 NOSIG
UTTT 151800Z 06006KT CAVOK 17/08 Q1020 R08R/CLRD70 NOSIG
UTTT 151730Z 06008KT CAVOK 19/09 Q1020 R08R/CLRD70 NOSIG
UTTT 151700Z 05006KT CAVOK 19/09 Q1020 R08R/CLRD70 NOSIG
UTTT 151630Z 06006KT CAVOK 19/08 Q1020 R08R/CLRD70 NOSIG
UTTT 151600Z 07004KT CAVOK 19/07 Q1020 R08R/CLRD70 NOSIG
UTTT 151530Z 03008KT CAVOK 21/07 Q1020 R08R/CLRD70 NOSIG
UTTT 151500Z 03010KT 9999 FEW066CB 22/07 Q1020 R08R/CLRD70 NOSIG
UTTT 151430Z 01010KT 9999 FEW066CB 22/07 Q1020 R08R/CLRD70 NOSIG
UTTT 151400Z 03010KT 9999 FEW066CB 23/08 Q1019 R08R/CLRD70 NOSIG
UTTT 151330Z 01008KT 9999 FEW066CB 24/08 Q1019 R08R/CLRD70 NOSIG
UTTT 151300Z 32008KT 9999 FEW066CB 25/06 Q1019 R08R/CLRD70 NOSIG
UTTT 151230Z 21008KT 180V240 9999 FEW066CB 25/03 Q1018 R08R/CLRD70 NOSIG
UTTT 151200Z 22006KT 9999 FEW066CB 26/04 Q1018 R08R/CLRD70 NOSIG
UTTT 151130Z 21010G22KT 9999 FEW066CB 25/04 Q1018 R08R/CLRD70 NOSIG
UTTT 151100Z 20008KT 160V240 9999 FEW066CB 25/10 Q1018 R08R/CLRD70 NOSIG
UTTT 151030Z 21008KT 180V250 9999 FEW066CB 25/09 Q1018 R08R/CLRD70 NOSIG
UTTT 151000Z 18006KT 140V260 9999 FEW066CB 26/09 Q1018 R08R/CLRD70 NOSIG
UTTT 150930Z 19006KT 150V240 9999 FEW066CB 25/09 Q1018 R08R/CLRD70 NOSIG
UTTT 150900Z 23006KT 160V270 9999 FEW066CB 24/09 Q1018 R08R/CLRD70 NOSIG
UTTT 150830Z 19006KT 9999 FEW066CB 23/10 Q1018 R08R/CLRD70 NOSIG
UTTT 150800Z 18006KT 150V230 9999 FEW066CB 23/10 Q1018 R08R/CLRD70 NOSIG
UTTT 150730Z 15008KT 120V200 7000 SCT066CB 22/10 Q1018 R08R/CLRD70 NOSIG
UTTT 150700Z 12006KT 090V160 7000 SCT066CB 22/10 Q1018 R08R/19//60 NOSIG
UTTT 150630Z 11006KT 090V150 7000 SCT066CB 21/10 Q1018 R08R/19//60 NOSIG
UTTT 150600Z VRB02KT 7000 BKN066CB 21/10 Q1018 R08R/19//60 NOSIG
UTTT 150530Z 10004KT 7000 BKN066CB 20/10 Q1018 R08R/19//60 NOSIG
UTTT 150500Z VRB02KT 7000 BKN034CB 20/11 Q1018 R26R/19//60 NOSIG
UTTT 150430Z VRB02KT 7000 -SHRA BKN066CB 19/10 Q1018 R26R/CLRD70 NOSIG
UTTT 150400Z 15004KT 120V180 9999 -SHRA BKN066CB 19/10 Q1017 R26R/CLRD70 NOSIG
UTTT 150330Z 16004KT 130V190 9999 SCT066CB 19/10 Q1017 R26R/CLRD70 NOSIG
UTTT 150300Z 14006KT 9999 SCT066CB 19/09 Q1016 R26R/CLRD70 NOSIG
UTTT 150230Z VRB02KT 9999 FEW066CB 20/09 Q1016 R26R/CLRD70 NOSIG
UTTT 150200Z 10004KT 9999 FEW066CB 20/08 Q1016 R26R/CLRD70 NOSIG
UTTT 150130Z VRB02KT CAVOK 20/08 Q1016 R08R/CLRD70 NOSIG
UTTT 150100Z VRB02KT CAVOK 20/08 Q1016 R08R/CLRD70 NOSIG
UTTT 150030Z 06006KT CAVOK 20/08 Q1016 R08R/CLRD70 NOSIG
UTTT 150000Z 06004KT CAVOK 20/08 Q1015 R08R/CLRD70 NOSIG
UTTT 142330Z 07006KT CAVOK 17/06 Q1015 R08R/CLRD70 NOSIG
UTTT 142300Z 08006KT CAVOK 18/06 Q1015 R08R/CLRD70 NOSIG
UTTT 142230Z 03004KT 360V060 CAVOK 20/06 Q1015 R08R/CLRD70 NOSIG
UTTT 142200Z VRB02KT 9999 SCT066CB 21/06 Q1015 R08R/CLRD70 NOSIG
UTTT 142130Z 00000KT 9999 FEW066CB 21/06 Q1015 R08R/CLRD70 NOSIG
UTTT 142100Z VRB02KT 9999 FEW066CB 20/06 Q1015 R08R/CLRD70 NOSIG
UTTT 142030Z 36004KT 290V050 9999 SCT066CB 22/05 Q1015 R08R/CLRD70 NOSIG
UTTT 142000Z VRB02KT 9999 SCT066CB 21/05 Q1015 R08R/CLRD70 NOSIG
UTTT 141930Z 31002KT 9999 SCT066CB 22/05 Q1015 R08R/CLRD70 NOSIG